createdAt,value
2023-05-22T00:01:56.780Z,100306.38
2023-05-22T00:05:00.832Z,100308.41
2023-05-22T00:08:04.871Z,100312.09
2023-05-22T00:11:07.257Z,100306.56
2023-05-22T00:14:09.766Z,100316.66
2023-05-22T00:17:15.149Z,100309.88
2023-05-22T00:20:17.594Z,100311.09
2023-05-22T00:23:21.914Z,100319.97
2023-05-22T00:26:24.381Z,100314.59
2023-05-22T00:29:26.686Z,100307.84
2023-05-22T00:32:29.132Z,100311.56
2023-05-22T00:35:31.457Z,100315.25
2023-05-22T00:38:35.181Z,100309.03
2023-05-22T00:41:38.691Z,100318.28
2023-05-22T00:44:41.910Z,100325.69
2023-05-22T00:47:44.353Z,100320.63
2023-05-22T00:50:46.713Z,100327.34
2023-05-22T00:53:49.869Z,100318.63
2023-05-22T00:56:52.250Z,100317.25
2023-05-22T00:59:54.891Z,100320.44
2023-05-22T01:02:57.298Z,100323.63
2023-05-22T01:05:59.588Z,100317.72
2023-05-22T01:09:02.085Z,100318.91
2023-05-22T01:12:16.738Z,100314.19
2023-05-22T01:15:29.555Z,100315.13
2023-05-22T01:18:49.478Z,100321.78
2023-05-22T01:22:05.548Z,100318.41
2023-05-22T01:25:43.334Z,100325.50
2023-05-22T01:29:09.217Z,100315.41
2023-05-22T01:32:14.945Z,100317.25
2023-05-22T01:35:18.866Z,100311.34
2023-05-22T01:38:22.014Z,100321.63
2023-05-22T01:41:24.670Z,100309.16
2023-05-22T01:44:26.847Z,100308.31
2023-05-22T01:47:31.548Z,100293.88
2023-05-22T01:50:34.446Z,100298.72
2023-05-22T01:54:03.338Z,100302.25
2023-05-22T01:57:18.101Z,100295.78
2023-05-22T02:00:22.503Z,100291.09
2023-05-22T02:03:30.398Z,100288.88
2023-05-22T02:06:33.484Z,100293.94
2023-05-22T02:09:37.409Z,100291.09
2023-05-22T02:12:39.794Z,100289.41
2023-05-22T02:15:45.783Z,100285.66
2023-05-22T02:18:48.377Z,100291.00
2023-05-22T02:21:50.869Z,100294.16
2023-05-22T02:24:53.179Z,100289.72
2023-05-22T02:27:55.457Z,100292.53
2023-05-22T02:30:57.837Z,100285.09
2023-05-22T02:34:00.197Z,100290.41
2023-05-22T02:37:05.362Z,100286.03
2023-05-22T02:40:08.513Z,100288.25
2023-05-22T02:43:10.831Z,100281.41
2023-05-22T02:46:13.214Z,100273.03
2023-05-22T02:49:16.132Z,100278.09
2023-05-22T02:52:18.372Z,100279.94
2023-05-22T02:55:21.023Z,100280.78
2023-05-22T02:58:25.282Z,100279.72
2023-05-22T03:01:30.584Z,100280.25
2023-05-22T03:04:33.029Z,100277.06
2023-05-22T03:07:35.334Z,100283.28
2023-05-22T03:10:38.737Z,100277.91
2023-05-22T03:13:41.112Z,100279.59
2023-05-22T03:16:43.590Z,100270.84
2023-05-22T03:19:45.947Z,100281.94
2023-05-22T03:22:48.251Z,100271.91
2023-05-22T03:25:51.256Z,100271.75
2023-05-22T03:28:54.563Z,100272.75
2023-05-22T03:31:57.281Z,100267.91
2023-05-22T03:35:00.929Z,100261.38
2023-05-22T03:38:03.395Z,100274.19
2023-05-22T03:41:05.823Z,100272.34
2023-05-22T03:44:08.094Z,100280.09
2023-05-22T03:47:10.486Z,100282.78
2023-05-22T03:50:12.824Z,100272.56
2023-05-22T03:53:15.103Z,100279.81
2023-05-22T03:56:17.378Z,100270.47
2023-05-22T03:59:19.655Z,100274.56
2023-05-22T04:02:22.236Z,100273.56
2023-05-22T04:05:24.637Z,100276.28
2023-05-22T04:08:27.030Z,100276.03
2023-05-22T04:11:30.532Z,100279.06
2023-05-22T04:14:33.171Z,100267.22
2023-05-22T04:17:39.751Z,100282.38
2023-05-22T04:20:42.846Z,100276.13
2023-05-22T04:23:45.605Z,100277.44
2023-05-22T04:26:47.939Z,100279.59
2023-05-22T04:29:50.584Z,100274.03
2023-05-22T04:32:52.799Z,100265.59
2023-05-22T04:35:55.034Z,100271.31
2023-05-22T04:38:57.304Z,100271.66
2023-05-22T04:42:05.754Z,100273.34
2023-05-22T04:45:09.902Z,100275.00
2023-05-22T04:48:12.655Z,100280.06
2023-05-22T04:51:15.106Z,100284.13
2023-05-22T04:54:17.408Z,100293.22
2023-05-22T04:57:21.312Z,100285.22
2023-05-22T05:00:26.567Z,100283.38
2023-05-22T05:03:29.083Z,100291.63
2023-05-22T05:06:31.395Z,100298.03
2023-05-22T05:09:33.764Z,100294.69
2023-05-22T05:12:37.256Z,100296.38
2023-05-22T05:15:39.602Z,100296.38
2023-05-22T05:18:41.901Z,100307.50
2023-05-22T05:21:44.479Z,100292.69
2023-05-22T05:24:46.780Z,100295.75
2023-05-22T05:27:49.057Z,100299.16
2023-05-22T05:30:55.795Z,100297.41
2023-05-22T05:34:23.977Z,100295.03
2023-05-22T05:37:34.227Z,100294.44
2023-05-22T05:40:38.032Z,100308.00
2023-05-22T05:43:42.376Z,100316.47
2023-05-22T05:46:46.286Z,100314.63
2023-05-22T05:49:51.273Z,100317.72
2023-05-22T05:52:54.922Z,100318.06
2023-05-22T05:55:57.820Z,100311.91
2023-05-22T05:59:01.014Z,100311.91
2023-05-22T06:02:26.423Z,100307.81
2023-05-22T06:05:32.115Z,100310.34
2023-05-22T06:08:52.500Z,100310.25
2023-05-22T06:12:01.746Z,100305.88
2023-05-22T06:15:05.548Z,100310.34
2023-05-22T06:18:08.525Z,100314.75
2023-05-22T06:21:12.926Z,100310.84
2023-05-22T06:24:15.608Z,100310.66
2023-05-22T06:27:18.803Z,100312.22
2023-05-22T06:30:38.396Z,100315.25
2023-05-22T06:33:45.035Z,100304.31
2023-05-22T06:36:50.590Z,100308.06
2023-05-22T06:39:54.657Z,100301.13
2023-05-22T06:43:08.411Z,100303.44
2023-05-22T06:46:19.907Z,100293.31
2023-05-22T06:49:29.454Z,100289.66
2023-05-22T06:52:32.075Z,100296.13
2023-05-22T06:55:35.096Z,100290.22
2023-05-22T06:58:44.912Z,100296.41
2023-05-22T07:01:47.421Z,100301.00
2023-05-22T07:04:54.688Z,100300.31
2023-05-22T07:08:04.452Z,100283.91
2023-05-22T07:11:08.696Z,100305.50
2023-05-22T07:14:12.637Z,100306.19
2023-05-22T07:17:16.384Z,100316.81
2023-05-22T07:20:20.777Z,100310.59
2023-05-22T07:23:47.355Z,100311.66
2023-05-22T07:26:49.629Z,100310.91
2023-05-22T07:29:52.806Z,100309.72
2023-05-22T07:32:56.530Z,100311.31
2023-05-22T07:35:59.167Z,100311.47
2023-05-22T07:39:01.747Z,100308.00
2023-05-22T07:42:06.884Z,100297.56
2023-05-22T07:45:14.503Z,100307.06
2023-05-22T07:48:17.002Z,100318.75
2023-05-22T07:51:20.701Z,100314.53
2023-05-22T07:54:26.141Z,100314.34
2023-05-22T07:57:29.766Z,100316.41
2023-05-22T08:00:35.473Z,100322.63
2023-05-22T08:03:37.959Z,100317.88
2023-05-22T08:06:41.202Z,100319.75
2023-05-22T08:09:46.143Z,100317.09
2023-05-22T08:12:48.510Z,100311.00
2023-05-22T08:15:50.804Z,100315.41
2023-05-22T08:19:03.239Z,100320.19
2023-05-22T08:22:05.819Z,100319.56
2023-05-22T08:25:08.223Z,100308.78
2023-05-22T08:28:10.455Z,100315.50
2023-05-22T08:31:13.212Z,100306.59
2023-05-22T08:34:15.605Z,100311.16
2023-05-22T08:37:17.913Z,100306.94
2023-05-22T08:40:20.745Z,100311.41
2023-05-22T08:43:23.692Z,100301.63
2023-05-22T08:46:30.118Z,100306.50
2023-05-22T08:49:32.564Z,100307.28
2023-05-22T08:52:48.365Z,100313.59
2023-05-22T08:55:53.599Z,100315.06
2023-05-22T08:58:56.271Z,100305.59
2023-05-22T09:01:58.807Z,100302.78
2023-05-22T09:05:02.181Z,100306.97
2023-05-22T09:08:16.124Z,100303.94
2023-05-22T09:11:22.690Z,100304.25
2023-05-22T09:14:25.373Z,100299.00
2023-05-22T09:17:27.708Z,100299.66
2023-05-22T09:20:35.032Z,100298.75
2023-05-22T09:23:37.986Z,100299.63
2023-05-22T09:26:40.900Z,100297.72
2023-05-22T09:29:49.741Z,100300.97
2023-05-22T09:32:52.570Z,100296.84
2023-05-22T09:35:55.078Z,100301.41
2023-05-22T09:38:58.136Z,100297.41
2023-05-22T09:42:01.502Z,100299.75
2023-05-22T09:45:08.047Z,100293.41
2023-05-22T09:48:10.507Z,100287.63
2023-05-22T09:51:13.188Z,100295.22
2023-05-22T09:54:16.183Z,100294.06
2023-05-22T09:57:19.230Z,100286.75
2023-05-22T10:00:23.492Z,100285.88
2023-05-22T10:03:26.924Z,100289.34
2023-05-22T10:06:31.534Z,100285.91
2023-05-22T10:09:35.746Z,100289.88
2023-05-22T10:12:43.384Z,100290.03
2023-05-22T10:15:47.547Z,100276.78
2023-05-22T10:22:22.587Z,100278.72
2023-05-22T10:25:26.045Z,100267.50
2023-05-22T10:28:48.222Z,100269.59
2023-05-22T10:32:10.585Z,100267.59
2023-05-22T10:35:30.594Z,100255.13
2023-05-22T10:38:44.732Z,100252.66
2023-05-22T10:41:47.303Z,100247.53
2023-05-22T10:44:49.920Z,100243.22
2023-05-22T10:48:05.577Z,100251.38
2023-05-22T10:51:08.592Z,100239.31
2023-05-22T10:54:10.930Z,100238.00
2023-05-22T10:57:15.967Z,100226.19
2023-05-22T11:00:19.502Z,100233.06
2023-05-22T11:03:26.870Z,100233.34
2023-05-22T11:06:38.993Z,100225.09
2023-05-22T11:09:48.746Z,100221.53
2023-05-22T11:13:03.949Z,100225.88
2023-05-22T11:16:06.518Z,100217.44
2023-05-22T11:19:22.565Z,100217.56
2023-05-22T11:22:40.072Z,100212.47
2023-05-22T11:25:42.575Z,100213.06
2023-05-22T11:28:48.064Z,100209.09
2023-05-22T11:31:50.445Z,100205.44
2023-05-22T11:34:52.689Z,100203.88
2023-05-22T11:37:56.188Z,100204.03
2023-05-22T11:40:58.500Z,100195.38
2023-05-22T11:44:01.605Z,100196.28
2023-05-22T11:47:04.259Z,100197.56
2023-05-22T11:50:09.848Z,100190.97
2023-05-22T11:53:12.604Z,100188.16
2023-05-22T11:56:15.366Z,100186.84
2023-05-22T11:59:17.653Z,100185.06
2023-05-22T12:02:20.139Z,100186.03
2023-05-22T12:05:22.442Z,100179.63
2023-05-22T12:08:25.611Z,100178.19
2023-05-22T12:11:28.174Z,100171.38
2023-05-22T12:14:31.621Z,100174.81
2023-05-22T12:17:36.994Z,100174.22
2023-05-22T12:20:43.518Z,100171.91
2023-05-22T12:23:50.442Z,100160.03
2023-05-22T12:26:53.627Z,100155.25
2023-05-22T12:29:56.545Z,100160.44
2023-05-22T12:32:59.148Z,100153.72
2023-05-22T12:36:07.486Z,100148.44
2023-05-22T12:39:11.170Z,100146.88
2023-05-22T12:42:14.726Z,100146.53
2023-05-22T12:45:18.110Z,100136.00
2023-05-22T12:48:20.663Z,100127.94
2023-05-22T12:51:24.214Z,100120.13
2023-05-22T12:54:26.391Z,100117.00
2023-05-22T12:57:28.639Z,100120.00
2023-05-22T13:00:30.955Z,100112.41
2023-05-22T13:03:33.290Z,100113.25
2023-05-22T13:06:35.530Z,100099.88
2023-05-22T13:09:37.855Z,100103.63
2023-05-22T13:12:40.439Z,100099.88
2023-05-22T13:15:42.918Z,100104.91
2023-05-22T13:18:46.177Z,100096.38
2023-05-22T13:21:48.471Z,100081.88
2023-05-22T13:24:51.097Z,100078.78
2023-05-22T13:27:53.645Z,100086.66
2023-05-22T13:30:56.537Z,100082.53
2023-05-22T13:34:00.423Z,100078.53
2023-05-22T13:37:04.864Z,100078.25
2023-05-22T13:40:07.391Z,100084.13
2023-05-22T13:43:09.643Z,100076.25
2023-05-22T13:46:11.906Z,100079.19
2023-05-22T13:49:14.201Z,100071.28
2023-05-22T13:52:16.506Z,100075.91
2023-05-22T13:55:18.856Z,100070.06
2023-05-22T13:58:21.131Z,100068.66
2023-05-22T14:01:23.546Z,100061.22
2023-05-22T14:04:25.844Z,100062.91
2023-05-22T14:07:30.983Z,100058.38
2023-05-22T14:10:34.566Z,100067.13
2023-05-22T14:13:36.900Z,100060.84
2023-05-22T14:16:39.544Z,100053.56
2023-05-22T14:19:41.926Z,100054.22
2023-05-22T14:22:56.419Z,100054.22
2023-05-22T14:26:00.329Z,100048.00
2023-05-22T14:29:02.617Z,100039.72
2023-05-22T14:32:05.532Z,100041.41
2023-05-22T14:35:08.223Z,100044.81
2023-05-22T14:38:10.541Z,100044.00
2023-05-22T14:41:13.074Z,100044.03
2023-05-22T14:44:15.546Z,100043.81
2023-05-22T14:47:17.734Z,100049.00
2023-05-22T14:50:20.991Z,100041.09
2023-05-22T14:53:23.445Z,100037.31
2023-05-22T14:56:26.643Z,100029.41
2023-05-22T14:59:28.985Z,100032.78
2023-05-22T15:02:31.280Z,100033.38
2023-05-22T15:05:33.626Z,100037.75
2023-05-22T15:08:36.738Z,100032.75
2023-05-22T15:11:39.073Z,100036.13
2023-05-22T15:14:41.549Z,100035.72
2023-05-22T15:17:43.948Z,100032.78
2023-05-22T15:20:46.201Z,100028.16
2023-05-22T15:23:48.468Z,100031.72
2023-05-22T15:26:50.707Z,100024.00
2023-05-22T15:29:52.953Z,100026.94
2023-05-22T15:32:55.311Z,100014.00
2023-05-22T15:35:57.566Z,100014.00
2023-05-22T15:38:59.821Z,100012.75
2023-05-22T15:42:06.419Z,100015.44
2023-05-22T15:45:09.361Z,100021.91
2023-05-22T15:48:12.467Z,100014.41
2023-05-22T15:51:14.838Z,100026.53
2023-05-22T15:54:17.159Z,100016.94
2023-05-22T15:57:19.638Z,100012.75
2023-05-22T16:00:21.977Z,100016.94
2023-05-22T16:03:24.392Z,100018.59
2023-05-22T16:06:27.450Z,100023.19
2023-05-22T16:09:31.377Z,100018.63
2023-05-22T16:12:34.914Z,100011.72
2023-05-22T16:15:39.802Z,100007.31
2023-05-22T16:18:42.470Z,100011.06
2023-05-22T16:21:45.005Z,100013.59
2023-05-22T16:24:47.692Z,100020.69
2023-05-22T16:27:49.931Z,100013.19
2023-05-22T16:30:52.230Z,100017.34
2023-05-22T16:33:54.634Z,100017.97
2023-05-22T16:36:56.918Z,100019.00
2023-05-22T16:39:59.174Z,100008.59
2023-05-22T16:43:01.502Z,100007.94
2023-05-22T16:46:04.113Z,100017.13
2023-05-22T16:49:06.493Z,100022.38
2023-05-22T16:52:09.147Z,100019.66
2023-05-22T16:55:11.452Z,100021.94
2023-05-22T16:58:14.023Z,100022.34
2023-05-22T17:01:16.569Z,100025.72
2023-05-22T17:04:20.697Z,100022.34
2023-05-22T17:07:23.479Z,100032.34
2023-05-22T17:10:25.901Z,100034.22
2023-05-22T17:13:28.037Z,100043.81
2023-05-22T17:16:30.940Z,100032.09
2023-05-22T17:19:33.390Z,100043.16
2023-05-22T17:22:37.390Z,100038.94
2023-05-22T17:25:39.920Z,100054.13
2023-05-22T17:28:42.435Z,100045.91
2023-05-22T17:31:44.704Z,100041.69
2023-05-22T17:34:47.103Z,100039.19
2023-05-22T17:37:49.554Z,100041.59
2023-05-22T17:40:54.615Z,100044.91
2023-05-22T17:43:57.586Z,100054.06
2023-05-22T17:47:00.147Z,100068.28
2023-05-22T17:50:02.643Z,100073.31
2023-05-22T17:53:04.850Z,100070.41
2023-05-22T17:56:07.167Z,100067.19
2023-05-22T17:59:09.463Z,100070.56
2023-05-22T18:02:11.823Z,100063.16
2023-05-22T18:05:14.164Z,100070.31
2023-05-22T18:08:17.328Z,100078.66
2023-05-22T18:11:19.687Z,100083.09
2023-05-22T18:14:21.989Z,100083.03
2023-05-22T18:17:24.363Z,100081.75
2023-05-22T18:20:27.107Z,100090.28
2023-05-22T18:23:29.407Z,100083.34
2023-05-22T18:26:31.742Z,100087.09
2023-05-22T18:29:34.008Z,100090.25
2023-05-22T18:32:36.973Z,100091.84
2023-05-22T18:35:39.320Z,100096.13
2023-05-22T18:38:41.860Z,100089.13
2023-05-22T18:41:44.038Z,100089.59
2023-05-22T18:44:48.706Z,100082.50
2023-05-22T18:47:51.405Z,100075.41
2023-05-22T18:50:54.275Z,100085.56
2023-05-22T18:53:57.131Z,100079.50
2023-05-22T18:56:59.403Z,100085.75
2023-05-22T19:00:01.720Z,100080.34
2023-05-22T19:03:04.429Z,100080.75
2023-05-22T19:06:07.078Z,100086.72
2023-05-22T19:09:12.548Z,100091.84
2023-05-22T19:12:14.870Z,100099.72
2023-05-22T19:15:17.210Z,100101.66
2023-05-22T19:18:19.487Z,100114.22
2023-05-22T19:21:22.552Z,100116.44
2023-05-22T19:24:26.356Z,100108.53
2023-05-22T19:27:28.627Z,100117.47
2023-05-22T19:30:30.878Z,100120.56
2023-05-22T19:33:33.762Z,100122.25
2023-05-22T19:36:36.302Z,100131.09
2023-05-22T19:39:38.743Z,100126.88
2023-05-22T19:42:41.496Z,100130.63
2023-05-22T19:45:45.253Z,100131.66
2023-05-22T19:48:47.534Z,100129.19
2023-05-22T19:51:49.877Z,100129.13
2023-05-22T19:54:52.479Z,100127.44
2023-05-22T19:57:54.949Z,100127.78
2023-05-22T20:00:57.267Z,100120.88
2023-05-22T20:04:01.050Z,100116.72
2023-05-22T20:07:04.255Z,100124.81
2023-05-22T20:10:07.078Z,100126.84
2023-05-22T20:13:09.394Z,100117.03
2023-05-22T20:16:12.621Z,100121.47
2023-05-22T20:19:15.017Z,100118.06
2023-05-22T20:22:17.556Z,100122.50
2023-05-22T20:25:21.287Z,100118.03
2023-05-22T20:28:23.537Z,100113.53
2023-05-22T20:31:25.972Z,100110.53
2023-05-22T20:34:28.916Z,100117.31
2023-05-22T20:37:34.864Z,100112.66
2023-05-22T20:40:37.773Z,100106.09
2023-05-22T20:43:43.286Z,100106.66
2023-05-22T20:46:45.822Z,100111.41
2023-05-22T20:49:48.150Z,100105.50
2023-05-22T20:52:50.561Z,100110.06
2023-05-22T20:55:53.343Z,100110.41
2023-05-22T20:58:56.274Z,100107.44
2023-05-22T21:01:58.629Z,100104.44
2023-05-22T21:05:01.004Z,100104.81
2023-05-22T21:08:03.348Z,100098.47
2023-05-22T21:11:07.324Z,100098.16
2023-05-22T21:14:09.627Z,100106.75
2023-05-22T21:17:12.009Z,100105.63
2023-05-22T21:20:14.476Z,100110.03
2023-05-22T21:23:16.896Z,100101.09
2023-05-22T21:26:22.272Z,100108.56
2023-05-22T21:29:24.835Z,100112.72
2023-05-22T21:32:27.089Z,100116.81
2023-05-22T21:35:29.429Z,100116.47
2023-05-22T21:38:31.764Z,100115.53
2023-05-22T21:41:34.146Z,100113.16
2023-05-22T21:44:37.461Z,100113.84
2023-05-22T21:47:39.770Z,100115.91
2023-05-22T21:50:42.374Z,100128.72
2023-05-22T21:53:44.580Z,100130.06
2023-05-22T21:56:46.835Z,100127.03
2023-05-22T21:59:50.838Z,100115.94
2023-05-22T22:02:53.306Z,100124.00
2023-05-22T22:05:55.621Z,100111.91
2023-05-22T22:08:59.784Z,100112.59
2023-05-22T22:12:02.088Z,100126.59
2023-05-22T22:15:04.733Z,100115.34
2023-05-22T22:18:06.860Z,100117.03
2023-05-22T22:21:09.055Z,100112.66
2023-05-22T22:24:11.712Z,100114.03
2023-05-22T22:27:13.921Z,100115.38
2023-05-22T22:30:16.359Z,100114.34
2023-05-22T22:33:18.697Z,100115.53
2023-05-22T22:36:21.303Z,100119.56
2023-05-22T22:39:23.639Z,100115.72
2023-05-22T22:42:26.679Z,100117.03
2023-05-22T22:45:28.987Z,100115.06
2023-05-22T22:48:31.243Z,100105.94
2023-05-22T22:51:34.544Z,100107.28
2023-05-22T22:54:37.006Z,100102.56
2023-05-22T22:57:39.316Z,100105.25
2023-05-22T23:00:41.906Z,100106.44
2023-05-22T23:03:44.065Z,100104.22
2023-05-22T23:06:46.285Z,100106.25
2023-05-22T23:09:48.537Z,100103.72
2023-05-22T23:12:50.909Z,100099.53
2023-05-22T23:15:53.432Z,100096.66
2023-05-22T23:18:55.773Z,100110.63
2023-05-22T23:21:58.044Z,100106.41
2023-05-22T23:25:00.420Z,100101.50
2023-05-22T23:28:02.703Z,100109.41
2023-05-22T23:31:05.041Z,100109.03
2023-05-22T23:34:07.312Z,100110.22
2023-05-22T23:37:09.778Z,100109.53
2023-05-22T23:40:12.493Z,100113.06
2023-05-22T23:43:14.640Z,100109.03
2023-05-22T23:46:16.875Z,100114.22
2023-05-22T23:49:19.126Z,100106.81
2023-05-22T23:52:22.165Z,100121.25
2023-05-22T23:55:24.496Z,100108.44
2023-05-22T23:58:29.363Z,100120.19
